Wetterstation Vordersexau
Wetterdaten: Woche 25.11.13 - 01.12.13 (KW48)
Datum Zeit Temp. A. Feuchte A. Luftdruck Regen Wind Richtung Taupunkt Windchill Windben
25.11.2013 00:00 3,3 C 86 % 1021,4 hPa 0,0 l/m 0,0 km/h N-NO 1,2 C 3,3 C 0,0 km/h
25.11.2013 01:00 2,6 C 84 % 1021,7 hPa 0,0 l/m 0,0 km/h N-NO 0,2 C 2,6 C 0,0 km/h
25.11.2013 02:00 1,2 C 85 % 1022,2 hPa 0,0 l/m 0,6 km/h N -1,0 C 1,2 C 0,4 km/h
25.11.2013 03:00 0,3 C 87 % 1022,9 hPa 0,0 l/m 0,0 km/h NO -1,6 C 0,3 C 0,0 km/h
25.11.2013 04:00 -1,5 C 87 % 1023,5 hPa 0,0 l/m 0,0 km/h N-NO -3,4 C -1,5 C 0,0 km/h
25.11.2013 05:00 -1,1 C 88 % 1024,1 hPa 0,0 l/m 0,0 km/h N-NO -2,8 C -1,1 C 0,0 km/h
25.11.2013 06:00 -2,7 C 88 % 1024,5 hPa 0,0 l/m 0,0 km/h N-NO -4,4 C -2,7 C 0,0 km/h
25.11.2013 07:00 -3,3 C 88 % 1025,3 hPa 0,0 l/m 0,0 km/h N-NO -5,0 C -3,3 C 0,0 km/h
25.11.2013 08:00 -3,1 C 87 % 1025,9 hPa 0,0 l/m 0,0 km/h NO -4,9 C -3,1 C 0,0 km/h
25.11.2013 09:00 3,5 C 87 % 1026,7 hPa 0,0 l/m 0,0 km/h W 1,5 C 3,5 C 0,0 km/h
25.11.2013 10:00 7,3 C 75 % 1027,1 hPa 0,0 l/m 0,0 km/h W-SW 3,2 C 7,3 C 0,0 km/h
25.11.2013 11:00 9,3 C 66 % 1026,8 hPa 0,0 l/m 0,0 km/h NO 3,3 C 9,3 C 0,0 km/h
25.11.2013 12:00 9,3 C 57 % 1026,4 hPa 0,0 l/m 0,0 km/h N-NO 1,2 C 9,3 C 0,0 km/h
25.11.2013 13:00 5,6 C 60 % 1026,3 hPa 0,0 l/m 0,0 km/h N-NO -1,5 C 5,6 C 0,0 km/h
25.11.2013 14:00 8,7 C 52 % 1026,1 hPa 0,0 l/m 8,4 km/h O -0,6 C 7,2 C 4,7 km/h
25.11.2013 15:00 3,2 C 63 % 1026,3 hPa 0,0 l/m 0,0 km/h W-NW -3,1 C 3,2 C 0,0 km/h
25.11.2013 16:00 6,1 C 59 % 1026,5 hPa 0,0 l/m 0,0 km/h NW -1,3 C 6,1 C 0,0 km/h
25.11.2013 17:00 0,2 C 73 % 1026,7 hPa 0,0 l/m 0,0 km/h SO -4,1 C 0,2 C 0,0 km/h
25.11.2013 18:00 0,1 C 80 % 1027,1 hPa 0,0 l/m 0,0 km/h SO -2,9 C 0,1 C 0,0 km/h
25.11.2013 19:00 0,2 C 82 % 1027,0 hPa 0,0 l/m 0,0 km/h SO -2,5 C 0,2 C 0,0 km/h
25.11.2013 20:00 0,5 C 83 % 1027,5 hPa 0,0 l/m 0,0 km/h SO -2,0 C 0,5 C 0,0 km/h
25.11.2013 21:00 0,6 C 84 % 1027,5 hPa 0,0 l/m 0,0 km/h SO -1,8 C 0,6 C 0,0 km/h
25.11.2013 22:00 0,4 C 85 % 1027,1 hPa 0,0 l/m 0,0 km/h N -1,8 C 0,4 C 0,0 km/h
25.11.2013 23:00 0,7 C 85 % 1027,4 hPa 0,0 l/m 0,0 km/h N -1,5 C 0,7 C 0,0 km/h
26.11.2013 00:00 0,6 C 86 % 1027,4 hPa 0,0 l/m 0,0 km/h N -1,5 C 0,6 C 0,0 km/h
26.11.2013 01:00 0,6 C 86 % 1027,4 hPa 0,0 l/m 0,0 km/h N -1,5 C 0,6 C 0,0 km/h
26.11.2013 02:00 0,6 C 87 % 1027,4 hPa 0,0 l/m 0,0 km/h N -1,3 C 0,6 C 0,0 km/h
26.11.2013 03:00 0,5 C 87 % 1027,9 hPa 0,0 l/m 0,0 km/h N -1,4 C 0,5 C 0,0 km/h
26.11.2013 04:00 0,4 C 87 % 1028,0 hPa 0,0 l/m 0,0 km/h SW -1,5 C 0,4 C 0,0 km/h
26.11.2013 05:00 0,5 C 87 % 1028,3 hPa 0,0 l/m 0,0 km/h W -1,4 C 0,5 C 0,0 km/h
26.11.2013 06:00 0,2 C 87 % 1028,5 hPa 0,0 l/m 0,0 km/h W -1,7 C 0,2 C 0,0 km/h
26.11.2013 07:00 -2,1 C 87 % 1028,9 hPa 0,0 l/m 0,0 km/h NW -4,0 C -2,1 C 0,0 km/h
26.11.2013 08:00 -2,5 C 87 % 1029,6 hPa 0,0 l/m 0,0 km/h N -4,4 C -2,5 C 0,0 km/h
26.11.2013 09:00 4,3 C 86 % 1030,3 hPa 0,0 l/m 0,0 km/h O-SO 2,2 C 4,3 C 0,0 km/h
26.11.2013 10:00 7,1 C 75 % 1030,7 hPa 0,0 l/m 0,0 km/h N 3,0 C 7,1 C 0,0 km/h
26.11.2013 11:00 9,3 C 62 % 1030,5 hPa 0,0 l/m 0,0 km/h N-NO 2,4 C 9,3 C 0,0 km/h
26.11.2013 12:00 7,3 C 59 % 1030,3 hPa 0,0 l/m 0,0 km/h N-NO -0,2 C 7,3 C 0,0 km/h
26.11.2013 13:00 3,5 C 69 % 1030,2 hPa 0,0 l/m 14,9 km/h NW -1,6 C -2,7 C 8,3 km/h
26.11.2013 14:00 3,9 C 69 % 1029,9 hPa 0,0 l/m 0,0 km/h N-NO -1,3 C 3,9 C 0,0 km/h
26.11.2013 15:00 3,8 C 68 % 1029,9 hPa 0,0 l/m 0,0 km/h N-NO -1,6 C 3,8 C 0,0 km/h
26.11.2013 16:00 2,9 C 73 % 1029,9 hPa 0,0 l/m 0,0 km/h N -1,5 C 2,9 C 0,0 km/h
26.11.2013 17:00 -0,9 C 78 % 1030,3 hPa 0,0 l/m 0,0 km/h O-SO -4,2 C -0,9 C 0,0 km/h
26.11.2013 18:00 -2,6 C 82 % 1030,5 hPa 0,0 l/m 0,0 km/h O-SO -5,2 C -2,6 C 0,0 km/h
26.11.2013 19:00 -3,1 C 85 % 1030,7 hPa 0,0 l/m 0,0 km/h O-SO -5,3 C -3,1 C 0,0 km/h
26.11.2013 20:00 -3,5 C 86 % 1030,8 hPa 0,0 l/m 0,0 km/h O -5,5 C -3,5 C 0,0 km/h
26.11.2013 21:00 -3,6 C 86 % 1030,7 hPa 0,0 l/m 0,0 km/h O -5,6 C -3,6 C 0,0 km/h
26.11.2013 22:00 -4,4 C 87 % 1030,6 hPa 0,0 l/m 0,0 km/h O-NO -6,2 C -4,4 C 0,0 km/h
26.11.2013 23:00 -4,4 C 87 % 1030,6 hPa 0,0 l/m 0,0 km/h O-NO -6,2 C -4,4 C 0,0 km/h
27.11.2013 00:00 -5,1 C 87 % 1030,4 hPa 0,0 l/m 0,0 km/h O-NO -6,9 C -5,1 C 0,0 km/h
27.11.2013 01:00 -5,1 C 87 % 1029,6 hPa 0,0 l/m 0,0 km/h N-NO -6,9 C -5,1 C 0,0 km/h
27.11.2013 02:00 -4,7 C 87 % 1030,0 hPa 0,0 l/m 0,0 km/h SO -6,5 C -4,7 C 0,0 km/h
27.11.2013 03:00 -4,4 C 87 % 1030,1 hPa 0,0 l/m 0,0 km/h O-NO -6,2 C -4,4 C 0,0 km/h
27.11.2013 04:00 -4,9 C 87 % 1029,3 hPa 0,0 l/m 0,0 km/h SO -6,7 C -4,9 C 0,0 km/h
27.11.2013 05:00 -5,0 C 87 % 1029,4 hPa 0,0 l/m 0,0 km/h O-SO -6,8 C -5,0 C 0,0 km/h
27.11.2013 06:00 -5,1 C 87 % 1029,8 hPa 0,0 l/m 0,0 km/h O-SO -6,9 C -5,1 C 0,0 km/h
27.11.2013 07:00 -5,9 C 87 % 1029,4 hPa 0,0 l/m 0,0 km/h N -7,7 C -5,9 C 0,0 km/h
27.11.2013 08:00 -6,1 C 87 % 1029,8 hPa 0,0 l/m 0,0 km/h S-SW -7,9 C -6,1 C 0,0 km/h
27.11.2013 09:00 0,1 C 86 % 1030,0 hPa 0,0 l/m 1,3 km/h N -2,0 C 0,1 C 0,7 km/h
27.11.2013 10:00 4,6 C 77 % 1030,3 hPa 0,0 l/m 0,0 km/h N-NO 0,9 C 4,6 C 0,0 km/h
27.11.2013 11:00 5,8 C 66 % 1029,9 hPa 0,5 l/m 0,0 km/h NW -0,0 C 5,8 C 0,0 km/h
27.11.2013 12:00 6,3 C 65 % 1029,6 hPa 0,0 l/m 0,0 km/h N-NW 0,2 C 6,3 C 0,0 km/h
27.11.2013 13:00 4,9 C 66 % 1029,2 hPa 0,0 l/m 0,0 km/h W-NW -0,9 C 4,9 C 0,0 km/h
27.11.2013 14:00 5,2 C 66 % 1028,9 hPa 0,0 l/m 2,6 km/h W -0,6 C 5,2 C 1,4 km/h
27.11.2013 15:00 4,8 C 67 % 1029,4 hPa 0,0 l/m 0,0 km/h NW -0,8 C 4,8 C 0,0 km/h
27.11.2013 16:00 2,1 C 70 % 1029,7 hPa 0,0 l/m 0,0 km/h SW -2,8 C 2,1 C 0,0 km/h
27.11.2013 17:00 -3,1 C 79 % 1029,6 hPa 0,0 l/m 0,0 km/h SW -6,2 C -3,1 C 0,0 km/h
27.11.2013 18:00 -4,2 C 83 % 1030,3 hPa 0,0 l/m 0,0 km/h SW -6,6 C -4,2 C 0,0 km/h
27.11.2013 19:00 -4,8 C 85 % 1030,4 hPa 0,0 l/m 0,0 km/h N-NO -6,9 C -4,8 C 0,0 km/h
27.11.2013 20:00 -5,4 C 85 % 1030,5 hPa 0,0 l/m 0,0 km/h NO -7,5 C -5,4 C 0,0 km/h
27.11.2013 21:00 -5,4 C 86 % 1030,9 hPa 0,0 l/m 0,0 km/h NO -7,4 C -5,4 C 0,0 km/h
27.11.2013 22:00 -5,8 C 86 % 1031,1 hPa 0,0 l/m 0,0 km/h NO -7,8 C -5,8 C 0,0 km/h
27.11.2013 23:00 -5,3 C 86 % 1031,2 hPa 0,0 l/m 0,0 km/h NO -7,3 C -5,3 C 0,0 km/h
28.11.2013 00:00 -4,6 C 87 % 1031,1 hPa 0,0 l/m 0,0 km/h N-NO -6,4 C -4,6 C 0,0 km/h
28.11.2013 01:00 -4,2 C 87 % 1031,0 hPa 0,0 l/m 0,0 km/h N -6,0 C -4,2 C 0,0 km/h
28.11.2013 02:00 -3,7 C 87 % 1031,4 hPa 0,0 l/m 0,0 km/h S-SO -5,5 C -3,7 C 0,0 km/h
28.11.2013 03:00 -3,4 C 87 % 1031,1 hPa 0,0 l/m 0,0 km/h S-SO -5,2 C -3,4 C 0,0 km/h
28.11.2013 04:00 -4,9 C 87 % 1031,1 hPa 0,0 l/m 0,0 km/h SO -6,7 C -4,9 C 0,0 km/h
28.11.2013 05:00 -3,9 C 87 % 1030,6 hPa 0,0 l/m 0,0 km/h SO -5,7 C -3,9 C 0,0 km/h
28.11.2013 06:00 -3,2 C 87 % 1030,7 hPa 0,0 l/m 0,0 km/h SO -5,0 C -3,2 C 0,0 km/h
28.11.2013 07:00 -2,8 C 86 % 1030,9 hPa 0,0 l/m 0,0 km/h SO -4,8 C -2,8 C 0,0 km/h
28.11.2013 08:00 -2,6 C 86 % 1030,6 hPa 0,0 l/m 0,0 km/h O-SO -4,6 C -2,6 C 0,0 km/h
28.11.2013 09:00 -1,4 C 86 % 1030,6 hPa 0,0 l/m 0,0 km/h W -3,4 C -1,4 C 0,0 km/h
28.11.2013 10:00 -1,4 C 86 % 1031,1 hPa 0,0 l/m 0,0 km/h W -3,4 C -1,4 C 0,0 km/h
28.11.2013 11:00 -0,2 C 86 % 1030,9 hPa 0,0 l/m 0,0 km/h SW -2,3 C -0,2 C 0,0 km/h
28.11.2013 12:00 0,9 C 86 % 1030,3 hPa 0,0 l/m 0,0 km/h W-SW -1,2 C 0,9 C 0,0 km/h
28.11.2013 13:00 1,1 C 82 % 1029,9 hPa 0,0 l/m 0,0 km/h W -1,6 C 1,1 C 0,0 km/h
28.11.2013 14:00 1,4 C 81 % 1029,0 hPa 0,0 l/m 0,0 km/h W -1,5 C 1,4 C 0,0 km/h
28.11.2013 15:00 1,8 C 80 % 1028,8 hPa 0,0 l/m 0,0 km/h W-NW -1,3 C 1,8 C 0,0 km/h
28.11.2013 16:00 0,9 C 80 % 1028,8 hPa 0,0 l/m 0,0 km/h W-NW -2,2 C 0,9 C 0,0 km/h
28.11.2013 17:00 -0,1 C 81 % 1028,8 hPa 0,0 l/m 0,0 km/h W-NW -3,0 C -0,1 C 0,0 km/h
28.11.2013 18:00 0,3 C 83 % 1029,4 hPa 0,0 l/m 0,0 km/h S-SW -2,2 C 0,3 C 0,0 km/h
28.11.2013 19:00 0,2 C 84 % 1029,2 hPa 0,0 l/m 0,0 km/h S-SW -2,2 C 0,2 C 0,0 km/h
28.11.2013 20:00 0,4 C 84 % 1029,3 hPa 0,0 l/m 0,0 km/h W -2,0 C 0,4 C 0,0 km/h
28.11.2013 21:00 0,1 C 85 % 1029,4 hPa 0,0 l/m 0,0 km/h W -2,1 C 0,1 C 0,0 km/h
28.11.2013 22:00 0,0 C 86 % 1029,2 hPa 0,0 l/m 0,0 km/h W -2,1 C 0,0 C 0,0 km/h
28.11.2013 23:00 -0,1 C 86 % 1029,4 hPa 0,0 l/m 0,0 km/h S-SO -2,2 C -0,1 C 0,0 km/h
29.11.2013 00:00 -0,4 C 87 % 1029,3 hPa 0,0 l/m 0,0 km/h S-SO -2,3 C -0,4 C 0,0 km/h
29.11.2013 01:00 -0,2 C 87 % 1029,1 hPa 0,0 l/m 0,0 km/h N-NW -2,1 C -0,2 C 0,0 km/h
29.11.2013 02:00 -0,2 C 87 % 1029,0 hPa 0,0 l/m 0,0 km/h N -2,1 C -0,2 C 0,0 km/h
29.11.2013 03:00 -0,1 C 86 % 1028,3 hPa 0,0 l/m 0,0 km/h O -2,2 C -0,1 C 0,0 km/h
29.11.2013 04:00 0,1 C 86 % 1028,2 hPa 0,0 l/m 0,0 km/h O -2,0 C 0,1 C 0,0 km/h
29.11.2013 05:00 0,1 C 86 % 1028,0 hPa 0,0 l/m 0,0 km/h O -2,0 C 0,1 C 0,0 km/h
29.11.2013 06:00 0,1 C 86 % 1027,9 hPa 0,0 l/m 0,0 km/h O -2,0 C 0,1 C 0,0 km/h
29.11.2013 07:00 0,1 C 86 % 1027,6 hPa 0,0 l/m 0,0 km/h O -2,0 C 0,1 C 0,0 km/h
29.11.2013 08:00 0,2 C 86 % 1027,7 hPa 0,0 l/m 0,0 km/h O -1,9 C 0,2 C 0,0 km/h
29.11.2013 09:00 1,1 C 85 % 1027,4 hPa 0,0 l/m 0,0 km/h O -1,1 C 1,1 C 0,0 km/h
29.11.2013 10:00 2,4 C 86 % 1026,8 hPa 0,0 l/m 0,0 km/h O 0,3 C 2,4 C 0,0 km/h
29.11.2013 11:00 3,4 C 85 % 1025,8 hPa 0,0 l/m 0,0 km/h N 1,1 C 3,4 C 0,0 km/h
29.11.2013 12:00 3,9 C 82 % 1024,6 hPa 0,0 l/m 0,0 km/h W 1,1 C 3,9 C 0,0 km/h
29.11.2013 13:00 3,4 C 82 % 1024,3 hPa 0,0 l/m 0,0 km/h O 0,6 C 3,4 C 0,0 km/h
29.11.2013 14:00 2,9 C 84 % 1022,8 hPa 0,0 l/m 0,0 km/h N 0,5 C 2,9 C 0,0 km/h
29.11.2013 15:00 3,6 C 84 % 1021,6 hPa 0,0 l/m 0,0 km/h N 1,2 C 3,6 C 0,0 km/h
29.11.2013 16:00 3,3 C 84 % 1021,5 hPa 0,0 l/m 0,0 km/h S-SW 0,9 C 3,3 C 0,0 km/h
29.11.2013 17:00 3,9 C 83 % 1020,4 hPa 0,0 l/m 12,3 km/h S-SW 1,3 C -0,7 C 6,8 km/h
29.11.2013 18:00 4,6 C 79 % 1019,6 hPa 0,0 l/m 20,7 km/h SW 1,3 C -4,0 C 11,5 km/h
29.11.2013 19:00 4,8 C 77 % 1019,1 hPa 0,0 l/m 27,2 km/h W-SW 1,1 C -5,9 C 15,1 km/h
29.11.2013 20:00 4,9 C 76 % 1018,2 hPa 0,0 l/m 34,3 km/h SW 1,0 C -7,5 C 19,1 km/h
29.11.2013 21:00 4,4 C 80 % 1017,6 hPa 0,0 l/m 38,9 km/h W-SW 1,3 C -9,2 C 21,6 km/h
29.11.2013 22:00 4,3 C 80 % 1016,7 hPa 0,0 l/m 36,3 km/h SW 1,2 C -8,8 C 20,2 km/h
29.11.2013 23:00 3,6 C 84 % 1016,0 hPa 0,0 l/m 23,3 km/h S-SW 1,2 C -6,3 C 13,0 km/h
30.11.2013 00:00 3,2 C 86 % 1015,4 hPa 0,0 l/m 24,6 km/h S 1,1 C -7,2 C 13,7 km/h
30.11.2013 01:00 3,1 C 86 % 1014,7 hPa 0,0 l/m 15,6 km/h S 1,0 C -3,5 C 8,6 km/h
30.11.2013 02:00 2,4 C 86 % 1014,4 hPa 0,5 l/m 10,4 km/h W-NW 0,3 C -1,1 C 5,8 km/h
30.11.2013 03:00 2,0 C 86 % 1014,7 hPa 1,6 l/m 0,0 km/h SO -0,1 C 2,0 C 0,0 km/h
30.11.2013 04:00 1,8 C 86 % 1014,6 hPa 0,5 l/m 0,0 km/h SO -0,3 C 1,8 C 0,0 km/h
30.11.2013 05:00 1,0 C 85 % 1014,7 hPa 0,0 l/m 0,0 km/h SO -1,2 C 1,0 C 0,0 km/h
30.11.2013 06:00 1,0 C 85 % 1014,8 hPa 0,0 l/m 0,0 km/h SO -1,2 C 1,0 C 0,0 km/h
30.11.2013 07:00 0,8 C 85 % 1015,3 hPa 0,0 l/m 0,0 km/h SO -1,4 C 0,8 C 0,0 km/h
30.11.2013 08:00 1,3 C 84 % 1016,2 hPa 0,0 l/m 0,0 km/h O-SO -1,1 C 1,3 C 0,0 km/h
30.11.2013 09:00 2,1 C 83 % 1016,8 hPa 0,0 l/m 0,0 km/h O-NO -0,5 C 2,1 C 0,0 km/h
30.11.2013 10:00 5,9 C 77 % 1017,9 hPa 0,0 l/m 0,0 km/h SO 2,2 C 5,9 C 0,0 km/h
30.11.2013 11:00 10,1 C 82 % 1017,9 hPa 0,0 l/m 0,0 km/h W-NW 7,2 C 10,1 C 0,0 km/h
30.11.2013 12:00 6,7 C 81 % 1017,8 hPa 0,0 l/m 0,0 km/h O 3,7 C 6,7 C 0,0 km/h
30.11.2013 13:00 6,4 C 77 % 1018,2 hPa 0,0 l/m 0,0 km/h N 2,7 C 6,4 C 0,0 km/h
30.11.2013 14:00 9,3 C 69 % 1018,3 hPa 0,0 l/m 8,4 km/h S-SO 3,9 C 7,8 C 4,7 km/h
30.11.2013 15:00 10,3 C 65 % 1019,1 hPa 0,0 l/m 0,0 km/h O-NO 4,0 C 10,3 C 0,0 km/h
30.11.2013 16:00 7,2 C 69 % 1019,8 hPa 0,0 l/m 0,0 km/h N-NO 1,9 C 7,2 C 0,0 km/h
30.11.2013 17:00 1,6 C 81 % 1020,7 hPa 0,0 l/m 0,0 km/h NO -1,3 C 1,6 C 0,0 km/h
30.11.2013 18:00 -0,6 C 84 % 1021,7 hPa 0,0 l/m 0,0 km/h O-SO -3,0 C -0,6 C 0,0 km/h
30.11.2013 19:00 1,1 C 86 % 1022,4 hPa 0,0 l/m 1,3 km/h O-SO -1,0 C 1,1 C 0,7 km/h
30.11.2013 20:00 1,1 C 86 % 1022,7 hPa 0,0 l/m 2,6 km/h O-SO -1,0 C 1,1 C 1,4 km/h
30.11.2013 21:00 -0,5 C 86 % 1023,3 hPa 0,0 l/m 0,0 km/h NO -2,5 C -0,5 C 0,0 km/h
30.11.2013 22:00 -0,9 C 86 % 1023,6 hPa 0,0 l/m 0,0 km/h O-SO -2,9 C -0,9 C 0,0 km/h
30.11.2013 23:00 -0,8 C 85 % 1023,7 hPa 0,0 l/m 0,0 km/h O-SO -3,0 C -0,8 C 0,0 km/h
01.12.2013 00:00 -1,1 C 85 % 1024,2 hPa 0,0 l/m 10,4 km/h O -3,3 C -5,0 C 5,8 km/h
01.12.2013 01:00 -2,2 C 85 % 1024,5 hPa 0,0 l/m 0,0 km/h O -4,4 C -2,2 C 0,0 km/h
01.12.2013 02:00 -2,4 C 84 % 1024,3 hPa 0,0 l/m 0,0 km/h O -4,7 C -2,4 C 0,0 km/h
01.12.2013 03:00 -1,5 C 84 % 1024,5 hPa 0,0 l/m 0,0 km/h O -3,8 C -1,5 C 0,0 km/h
01.12.2013 04:00 -1,1 C 83 % 1023,9 hPa 0,0 l/m 0,0 km/h O -3,6 C -1,1 C 0,0 km/h
01.12.2013 05:00 -1,9 C 83 % 1024,4 hPa 0,0 l/m 0,0 km/h O -4,4 C -1,9 C 0,0 km/h
01.12.2013 06:00 -1,4 C 82 % 1024,8 hPa 0,0 l/m 0,0 km/h O -4,1 C -1,4 C 0,0 km/h
01.12.2013 07:00 -0,6 C 81 % 1025,1 hPa 0,0 l/m 0,0 km/h O -3,4 C -0,6 C 0,0 km/h
01.12.2013 08:00 0,4 C 80 % 1025,4 hPa 0,0 l/m 0,0 km/h N-NO -2,6 C 0,4 C 0,0 km/h
01.12.2013 09:00 1,0 C 79 % 1025,6 hPa 0,0 l/m 0,0 km/h N-NO -2,2 C 1,0 C 0,0 km/h
01.12.2013 10:00 5,0 C 71 % 1026,0 hPa 0,0 l/m 0,0 km/h W-SW 0,2 C 5,0 C 0,0 km/h
01.12.2013 11:00 11,3 C 74 % 1026,0 hPa 0,0 l/m 0,0 km/h O-SO 6,8 C 11,3 C 0,0 km/h
01.12.2013 12:00 14,1 C 61 % 1025,4 hPa 0,0 l/m 0,0 km/h N 6,7 C 14,1 C 0,0 km/h
01.12.2013 13:00 11,1 C 60 % 1025,2 hPa 0,0 l/m 9,7 km/h O-SO 3,6 C 9,0 C 5,4 km/h
01.12.2013 14:00 10,2 C 61 % 1025,0 hPa 0,0 l/m 0,0 km/h O 3,0 C 10,2 C 0,0 km/h
01.12.2013 15:00 9,5 C 58 % 1024,8 hPa 0,0 l/m 0,0 km/h N-NO 1,7 C 9,5 C 0,0 km/h
01.12.2013 16:00 5,3 C 71 % 1025,2 hPa 0,0 l/m 0,0 km/h N 0,5 C 5,3 C 0,0 km/h
01.12.2013 17:00 3,0 C 77 % 1025,4 hPa 0,0 l/m 0,0 km/h SO -0,6 C 3,0 C 0,0 km/h
01.12.2013 18:00 0,9 C 80 % 1025,8 hPa 0,0 l/m 0,0 km/h SO -2,2 C 0,9 C 0,0 km/h
01.12.2013 19:00 -0,8 C 83 % 1026,0 hPa 0,0 l/m 0,0 km/h O-SO -3,3 C -0,8 C 0,0 km/h
01.12.2013 20:00 -1,1 C 86 % 1026,5 hPa 0,0 l/m 0,0 km/h O-SO -3,1 C -1,1 C 0,0 km/h
01.12.2013 21:00 -1,4 C 86 % 1026,1 hPa 0,0 l/m 0,0 km/h N-NO -3,4 C -1,4 C 0,0 km/h
01.12.2013 22:00 -0,2 C 86 % 1026,2 hPa 0,0 l/m 0,0 km/h NO -2,3 C -0,2 C 0,0 km/h
01.12.2013 23:00 -1,2 C 86 % 1025,9 hPa 0,0 l/m 0,0 km/h O-SO -3,2 C -1,2 C 0,0 km/h
Min-Datum _ 27.11.13 25.11.13 30.11.13 - 25.11.13 - 27.11.13 29.11.13 25.11.13
_ Min-Zeit 08:19 14:19 02:19 - 00:19 - 08:19 21:19 00:19
Minimum _ -6,1 C 52 % 1014,4 hPa - 0,0 km/h - -7,9 C -9,2 C 0,0 km/h
Max-Datum _ 01.12.13 25.11.13 28.11.13 30.11.13 29.11.13 - 30.11.13 01.12.13 29.11.13
_ Max-Zeit 12:19 05:19 02:19 03:19 21:19 - 11:19 12:19 21:19
Maximum _ 14,1 C 88 % 1031,4 hPa 1,6 l/m 38,9 km/h
W-SW
- 7,2 C 14,1 C 21,6 km/h
W-SW
Durchschnitt _ 1,1 C 81 % 1026,1 hPa #3,1 l/m 1,8 km/h O -1,9 C 0,4 C 1,0 km/h
www.sexauwetter.de